Terminal Aerodrome Forecast
Issued by NWS Cleveland, OH

Home | Current Version | Previous Version | Graphics & Text | Print | Product List | Glossary On
Versions: 1 2 3 4 5 6 7 8 9 10 11 12 13 14 15 16 17 18 19
082
FTUS41 KCLE 281737 AAB
TAFYNG
TAF AMD
KYNG 281737Z 2818/2918 17010KT P6SM BKN025
     FM290000 16004KT P6SM VCTS SCT035CB BKN050
      TEMPO 2901/2903 VRB20G35KT 3SM TSRA BKN025CB OVC040
     FM290600 25008KT P6SM BKN025 OVC080
     FM291500 25010KT P6SM SCT040=

USA.gov is the U.S. government's official web portal to all federal, state and local government web resources and services.